sensor_id;sensor_type;location;lat;lon;timestamp;P1;durP1;ratioP1;P2;durP2;ratioP2
21513;SDS011;10918;48.102;11.636;2024-03-08T00:00:43;17.05;;;10.75;;
21513;SDS011;10918;48.102;11.636;2024-03-08T00:03:09;23.20;;;13.95;;
21513;SDS011;10918;48.102;11.636;2024-03-08T00:05:35;16.80;;;10.15;;
21513;SDS011;10918;48.102;11.636;2024-03-08T00:08:03;14.43;;;10.27;;
21513;SDS011;10918;48.102;11.636;2024-03-08T00:10:29;15.82;;;9.95;;
21513;SDS011;10918;48.102;11.636;2024-03-08T00:12:55;16.23;;;10.25;;
21513;SDS011;10918;48.102;11.636;2024-03-08T00:15:22;17.55;;;10.98;;
21513;SDS011;10918;48.102;11.636;2024-03-08T00:17:48;16.33;;;10.45;;
21513;SDS011;10918;48.102;11.636;2024-03-08T00:20:15;15.20;;;10.38;;
21513;SDS011;10918;48.102;11.636;2024-03-08T00:22:44;19.60;;;10.40;;
21513;SDS011;10918;48.102;11.636;2024-03-08T00:25:11;16.33;;;10.68;;
21513;SDS011;10918;48.102;11.636;2024-03-08T00:27:37;14.55;;;10.25;;
21513;SDS011;10918;48.102;11.636;2024-03-08T00:30:03;16.75;;;10.10;;
21513;SDS011;10918;48.102;11.636;2024-03-08T00:32:30;15.48;;;10.20;;
21513;SDS011;10918;48.102;11.636;2024-03-08T00:34:56;16.38;;;10.82;;
21513;SDS011;10918;48.102;11.636;2024-03-08T00:37:23;16.15;;;10.85;;
21513;SDS011;10918;48.102;11.636;2024-03-08T00:39:52;15.23;;;10.07;;
21513;SDS011;10918;48.102;11.636;2024-03-08T00:42:19;15.55;;;10.77;;
21513;SDS011;10918;48.102;11.636;2024-03-08T00:44:45;16.52;;;10.70;;
21513;SDS011;10918;48.102;11.636;2024-03-08T00:47:11;15.55;;;10.52;;
21513;SDS011;10918;48.102;11.636;2024-03-08T00:49:38;17.27;;;11.23;;
21513;SDS011;10918;48.102;11.636;2024-03-08T00:52:04;16.33;;;10.68;;
21513;SDS011;10918;48.102;11.636;2024-03-08T00:54:36;17.30;;;10.05;;
21513;SDS011;10918;48.102;11.636;2024-03-08T00:57:02;15.20;;;10.57;;
21513;SDS011;10918;48.102;11.636;2024-03-08T00:59:29;15.57;;;10.18;;
21513;SDS011;10918;48.102;11.636;2024-03-08T01:01:57;17.52;;;10.52;;
21513;SDS011;10918;48.102;11.636;2024-03-08T01:04:24;14.65;;;10.35;;
21513;SDS011;10918;48.102;11.636;2024-03-08T01:06:50;16.40;;;11.15;;
21513;SDS011;10918;48.102;11.636;2024-03-08T01:09:16;17.45;;;11.02;;
21513;SDS011;10918;48.102;11.636;2024-03-08T01:11:43;19.33;;;10.57;;
21513;SDS011;10918;48.102;11.636;2024-03-08T01:14:09;17.60;;;10.50;;
21513;SDS011;10918;48.102;11.636;2024-03-08T01:16:35;16.20;;;10.77;;
21513;SDS011;10918;48.102;11.636;2024-03-08T01:19:01;15.85;;;11.60;;
21513;SDS011;10918;48.102;11.636;2024-03-08T01:21:28;16.42;;;11.55;;
21513;SDS011;10918;48.102;11.636;2024-03-08T01:23:54;18.40;;;12.00;;
21513;SDS011;10918;48.102;11.636;2024-03-08T01:26:20;16.73;;;10.68;;
21513;SDS011;10918;48.102;11.636;2024-03-08T01:28:46;19.85;;;11.35;;
21513;SDS011;10918;48.102;11.636;2024-03-08T01:31:12;17.95;;;11.63;;
21513;SDS011;10918;48.102;11.636;2024-03-08T01:33:38;16.58;;;11.02;;
21513;SDS011;10918;48.102;11.636;2024-03-08T01:36:05;17.17;;;11.05;;
21513;SDS011;10918;48.102;11.636;2024-03-08T01:38:31;16.30;;;11.35;;
21513;SDS011;10918;48.102;11.636;2024-03-08T01:40:57;17.88;;;11.23;;
21513;SDS011;10918;48.102;11.636;2024-03-08T01:43:25;15.80;;;11.38;;
21513;SDS011;10918;48.102;11.636;2024-03-08T01:45:54;18.40;;;11.40;;
21513;SDS011;10918;48.102;11.636;2024-03-08T01:48:20;19.70;;;12.30;;
21513;SDS011;10918;48.102;11.636;2024-03-08T01:50:49;16.05;;;11.57;;
21513;SDS011;10918;48.102;11.636;2024-03-08T01:53:15;15.77;;;11.50;;
21513;SDS011;10918;48.102;11.636;2024-03-08T01:55:42;18.10;;;11.90;;
21513;SDS011;10918;48.102;11.636;2024-03-08T01:58:11;17.95;;;11.02;;
21513;SDS011;10918;48.102;11.636;2024-03-08T02:00:37;15.93;;;11.25;;
21513;SDS011;10918;48.102;11.636;2024-03-08T02:03:05;17.52;;;11.93;;
21513;SDS011;10918;48.102;11.636;2024-03-08T02:05:31;20.83;;;12.10;;
21513;SDS011;10918;48.102;11.636;2024-03-08T02:07:57;22.17;;;12.18;;
21513;SDS011;10918;48.102;11.636;2024-03-08T02:10:23;17.40;;;12.07;;
21513;SDS011;10918;48.102;11.636;2024-03-08T02:12:49;18.48;;;12.15;;
21513;SDS011;10918;48.102;11.636;2024-03-08T02:15:16;20.92;;;12.43;;
21513;SDS011;10918;48.102;11.636;2024-03-08T02:17:42;16.75;;;11.73;;
21513;SDS011;10918;48.102;11.636;2024-03-08T02:20:08;18.98;;;12.40;;
21513;SDS011;10918;48.102;11.636;2024-03-08T02:22:35;17.23;;;11.82;;
21513;SDS011;10918;48.102;11.636;2024-03-08T02:25:02;19.17;;;11.68;;
21513;SDS011;10918;48.102;11.636;2024-03-08T02:27:28;21.45;;;12.15;;
21513;SDS011;10918;48.102;11.636;2024-03-08T02:29:55;18.08;;;11.68;;
21513;SDS011;10918;48.102;11.636;2024-03-08T02:32:24;18.40;;;12.40;;
21513;SDS011;10918;48.102;11.636;2024-03-08T02:34:50;20.55;;;11.98;;
21513;SDS011;10918;48.102;11.636;2024-03-08T02:37:16;19.17;;;11.93;;
21513;SDS011;10918;48.102;11.636;2024-03-08T02:39:43;18.98;;;12.23;;
21513;SDS011;10918;48.102;11.636;2024-03-08T02:42:09;19.92;;;12.18;;
21513;SDS011;10918;48.102;11.636;2024-03-08T02:44:35;20.95;;;12.80;;
21513;SDS011;10918;48.102;11.636;2024-03-08T02:47:01;17.88;;;13.05;;
21513;SDS011;10918;48.102;11.636;2024-03-08T02:49:27;20.13;;;12.23;;
21513;SDS011;10918;48.102;11.636;2024-03-08T02:51:53;21.75;;;13.00;;
21513;SDS011;10918;48.102;11.636;2024-03-08T02:54:19;21.42;;;12.77;;
21513;SDS011;10918;48.102;11.636;2024-03-08T02:56:45;24.42;;;14.23;;
21513;SDS011;10918;48.102;11.636;2024-03-08T02:59:14;18.73;;;12.38;;
21513;SDS011;10918;48.102;11.636;2024-03-08T03:01:42;17.67;;;12.65;;
21513;SDS011;10918;48.102;11.636;2024-03-08T03:04:08;19.63;;;12.52;;
21513;SDS011;10918;48.102;11.636;2024-03-08T03:06:34;21.15;;;12.68;;
21513;SDS011;10918;48.102;11.636;2024-03-08T03:09:01;23.20;;;13.25;;
21513;SDS011;10918;48.102;11.636;2024-03-08T03:11:27;21.23;;;13.88;;
21513;SDS011;10918;48.102;11.636;2024-03-08T03:13:53;22.92;;;14.02;;
21513;SDS011;10918;48.102;11.636;2024-03-08T03:16:20;21.02;;;12.55;;
21513;SDS011;10918;48.102;11.636;2024-03-08T03:18:46;21.92;;;13.88;;
21513;SDS011;10918;48.102;11.636;2024-03-08T03:21:12;19.85;;;12.27;;
21513;SDS011;10918;48.102;11.636;2024-03-08T03:23:39;18.83;;;12.85;;
21513;SDS011;10918;48.102;11.636;2024-03-08T03:26:06;22.88;;;14.05;;
21513;SDS011;10918;48.102;11.636;2024-03-08T03:28:32;21.92;;;13.10;;
21513;SDS011;10918;48.102;11.636;2024-03-08T03:30:58;22.20;;;13.68;;
21513;SDS011;10918;48.102;11.636;2024-03-08T03:33:25;21.08;;;13.88;;
21513;SDS011;10918;48.102;11.636;2024-03-08T03:35:51;21.58;;;13.88;;
21513;SDS011;10918;48.102;11.636;2024-03-08T03:38:17;22.95;;;13.85;;
21513;SDS011;10918;48.102;11.636;2024-03-08T03:40:44;21.75;;;14.10;;
21513;SDS011;10918;48.102;11.636;2024-03-08T03:43:11;19.38;;;13.10;;
21513;SDS011;10918;48.102;11.636;2024-03-08T03:45:37;19.98;;;13.52;;
21513;SDS011;10918;48.102;11.636;2024-03-08T03:48:06;21.02;;;13.55;;
21513;SDS011;10918;48.102;11.636;2024-03-08T03:50:36;22.77;;;12.93;;
21513;SDS011;10918;48.102;11.636;2024-03-08T03:53:02;19.55;;;12.88;;
21513;SDS011;10918;48.102;11.636;2024-03-08T03:55:28;23.48;;;14.43;;
21513;SDS011;10918;48.102;11.636;2024-03-08T03:57:54;22.70;;;14.40;;
21513;SDS011;10918;48.102;11.636;2024-03-08T04:00:20;23.65;;;14.45;;
21513;SDS011;10918;48.102;11.636;2024-03-08T04:02:46;23.20;;;14.10;;
21513;SDS011;10918;48.102;11.636;2024-03-08T04:05:12;22.33;;;14.32;;
21513;SDS011;10918;48.102;11.636;2024-03-08T04:07:38;22.25;;;14.32;;
21513;SDS011;10918;48.102;11.636;2024-03-08T04:10:05;25.17;;;15.63;;
21513;SDS011;10918;48.102;11.636;2024-03-08T04:12:34;20.08;;;13.48;;
21513;SDS011;10918;48.102;11.636;2024-03-08T04:15:00;22.65;;;14.55;;
21513;SDS011;10918;48.102;11.636;2024-03-08T04:17:27;22.60;;;15.25;;
21513;SDS011;10918;48.102;11.636;2024-03-08T04:19:53;26.98;;;15.10;;
21513;SDS011;10918;48.102;11.636;2024-03-08T04:22:19;25.45;;;15.50;;
21513;SDS011;10918;48.102;11.636;2024-03-08T04:24:46;21.92;;;13.68;;
21513;SDS011;10918;48.102;11.636;2024-03-08T04:27:12;25.00;;;15.70;;
21513;SDS011;10918;48.102;11.636;2024-03-08T04:29:39;24.83;;;15.68;;
21513;SDS011;10918;48.102;11.636;2024-03-08T04:32:05;23.67;;;15.32;;
21513;SDS011;10918;48.102;11.636;2024-03-08T04:34:34;25.17;;;15.50;;
21513;SDS011;10918;48.102;11.636;2024-03-08T04:37:01;24.05;;;14.95;;
21513;SDS011;10918;48.102;11.636;2024-03-08T04:39:27;26.90;;;15.40;;
21513;SDS011;10918;48.102;11.636;2024-03-08T04:41:54;25.08;;;14.38;;
21513;SDS011;10918;48.102;11.636;2024-03-08T04:44:21;24.25;;;15.88;;
21513;SDS011;10918;48.102;11.636;2024-03-08T04:46:47;25.52;;;15.27;;
21513;SDS011;10918;48.102;11.636;2024-03-08T04:49:13;28.48;;;16.55;;
21513;SDS011;10918;48.102;11.636;2024-03-08T04:51:39;26.27;;;16.40;;
21513;SDS011;10918;48.102;11.636;2024-03-08T04:54:05;27.02;;;16.23;;
21513;SDS011;10918;48.102;11.636;2024-03-08T04:56:31;30.15;;;16.75;;
21513;SDS011;10918;48.102;11.636;2024-03-08T04:58:58;27.70;;;17.30;;
21513;SDS011;10918;48.102;11.636;2024-03-08T05:01:24;27.08;;;16.42;;
21513;SDS011;10918;48.102;11.636;2024-03-08T05:03:51;25.40;;;15.45;;
21513;SDS011;10918;48.102;11.636;2024-03-08T05:06:20;25.27;;;16.38;;
21513;SDS011;10918;48.102;11.636;2024-03-08T05:08:46;25.90;;;16.40;;
21513;SDS011;10918;48.102;11.636;2024-03-08T05:11:12;25.48;;;15.90;;
21513;SDS011;10918;48.102;11.636;2024-03-08T05:13:39;26.13;;;15.93;;
21513;SDS011;10918;48.102;11.636;2024-03-08T05:16:05;26.67;;;16.23;;
21513;SDS011;10918;48.102;11.636;2024-03-08T05:18:32;23.30;;;15.20;;
21513;SDS011;10918;48.102;11.636;2024-03-08T05:20:58;23.05;;;16.02;;
21513;SDS011;10918;48.102;11.636;2024-03-08T05:23:24;28.02;;;17.15;;
21513;SDS011;10918;48.102;11.636;2024-03-08T05:25:50;26.50;;;15.55;;
21513;SDS011;10918;48.102;11.636;2024-03-08T05:28:16;24.35;;;14.98;;
21513;SDS011;10918;48.102;11.636;2024-03-08T05:30:45;22.10;;;14.80;;
21513;SDS011;10918;48.102;11.636;2024-03-08T05:33:11;25.23;;;15.73;;
21513;SDS011;10918;48.102;11.636;2024-03-08T05:35:39;22.98;;;14.70;;
21513;SDS011;10918;48.102;11.636;2024-03-08T05:38:05;23.35;;;15.35;;
21513;SDS011;10918;48.102;11.636;2024-03-08T05:40:32;24.95;;;15.70;;
21513;SDS011;10918;48.102;11.636;2024-03-08T05:43:01;27.25;;;15.48;;
21513;SDS011;10918;48.102;11.636;2024-03-08T05:45:27;21.73;;;14.82;;
21513;SDS011;10918;48.102;11.636;2024-03-08T05:47:53;24.67;;;14.95;;
21513;SDS011;10918;48.102;11.636;2024-03-08T05:50:19;24.27;;;15.10;;
21513;SDS011;10918;48.102;11.636;2024-03-08T05:52:45;25.65;;;15.65;;
21513;SDS011;10918;48.102;11.636;2024-03-08T05:55:12;26.85;;;15.05;;
21513;SDS011;10918;48.102;11.636;2024-03-08T05:57:39;25.05;;;16.08;;
21513;SDS011;10918;48.102;11.636;2024-03-08T06:00:05;24.10;;;14.27;;
21513;SDS011;10918;48.102;11.636;2024-03-08T06:02:32;24.08;;;15.07;;
21513;SDS011;10918;48.102;11.636;2024-03-08T06:04:58;22.20;;;14.38;;
21513;SDS011;10918;48.102;11.636;2024-03-08T06:07:27;23.88;;;14.77;;
21513;SDS011;10918;48.102;11.636;2024-03-08T06:09:53;23.23;;;14.35;;
21513;SDS011;10918;48.102;11.636;2024-03-08T06:12:19;24.63;;;14.93;;
21513;SDS011;10918;48.102;11.636;2024-03-08T06:14:45;22.25;;;14.80;;
21513;SDS011;10918;48.102;11.636;2024-03-08T06:17:11;23.55;;;14.52;;
21513;SDS011;10918;48.102;11.636;2024-03-08T06:19:37;24.00;;;14.57;;
21513;SDS011;10918;48.102;11.636;2024-03-08T06:22:03;22.70;;;13.73;;
21513;SDS011;10918;48.102;11.636;2024-03-08T06:24:31;23.58;;;15.50;;
21513;SDS011;10918;48.102;11.636;2024-03-08T06:26:57;20.92;;;13.57;;
21513;SDS011;10918;48.102;11.636;2024-03-08T06:29:23;22.42;;;14.73;;
21513;SDS011;10918;48.102;11.636;2024-03-08T06:31:49;22.08;;;13.43;;
21513;SDS011;10918;48.102;11.636;2024-03-08T06:34:15;21.30;;;13.52;;
21513;SDS011;10918;48.102;11.636;2024-03-08T06:36:43;24.17;;;13.77;;
21513;SDS011;10918;48.102;11.636;2024-03-08T06:39:09;21.88;;;13.80;;
21513;SDS011;10918;48.102;11.636;2024-03-08T06:41:38;24.23;;;14.85;;
21513;SDS011;10918;48.102;11.636;2024-03-08T06:44:04;23.95;;;12.82;;
21513;SDS011;10918;48.102;11.636;2024-03-08T06:46:30;20.70;;;13.30;;
21513;SDS011;10918;48.102;11.636;2024-03-08T06:48:56;22.75;;;13.70;;
21513;SDS011;10918;48.102;11.636;2024-03-08T06:51:22;22.33;;;13.80;;
21513;SDS011;10918;48.102;11.636;2024-03-08T06:53:49;23.00;;;14.05;;
21513;SDS011;10918;48.102;11.636;2024-03-08T06:56:15;22.80;;;12.90;;
21513;SDS011;10918;48.102;11.636;2024-03-08T06:58:41;21.92;;;13.57;;
21513;SDS011;10918;48.102;11.636;2024-03-08T07:01:07;19.88;;;12.70;;
21513;SDS011;10918;48.102;11.636;2024-03-08T07:03:38;22.63;;;14.20;;
21513;SDS011;10918;48.102;11.636;2024-03-08T07:06:09;22.55;;;13.10;;
21513;SDS011;10918;48.102;11.636;2024-03-08T07:08:35;22.48;;;14.25;;
21513;SDS011;10918;48.102;11.636;2024-03-08T07:11:00;21.55;;;13.23;;
21513;SDS011;10918;48.102;11.636;2024-03-08T07:13:26;21.90;;;13.18;;
21513;SDS011;10918;48.102;11.636;2024-03-08T07:15:53;21.45;;;13.48;;
21513;SDS011;10918;48.102;11.636;2024-03-08T07:18:20;20.17;;;13.40;;
21513;SDS011;10918;48.102;11.636;2024-03-08T07:20:47;20.05;;;12.70;;
21513;SDS011;10918;48.102;11.636;2024-03-08T07:23:14;19.92;;;13.50;;
21513;SDS011;10918;48.102;11.636;2024-03-08T07:26:00;22.45;;;14.43;;
21513;SDS011;10918;48.102;11.636;2024-03-08T07:28:26;22.67;;;13.63;;
21513;SDS011;10918;48.102;11.636;2024-03-08T07:30:52;22.13;;;13.88;;
21513;SDS011;10918;48.102;11.636;2024-03-08T07:33:27;21.95;;;13.20;;
21513;SDS011;10918;48.102;11.636;2024-03-08T07:35:53;22.98;;;14.05;;
21513;SDS011;10918;48.102;11.636;2024-03-08T07:38:19;22.38;;;14.32;;
21513;SDS011;10918;48.102;11.636;2024-03-08T07:40:46;20.67;;;14.18;;
21513;SDS011;10918;48.102;11.636;2024-03-08T07:43:13;17.88;;;12.43;;
21513;SDS011;10918;48.102;11.636;2024-03-08T07:45:39;19.73;;;12.98;;
21513;SDS011;10918;48.102;11.636;2024-03-08T07:48:05;19.48;;;12.77;;
21513;SDS011;10918;48.102;11.636;2024-03-08T07:50:35;24.38;;;12.80;;
21513;SDS011;10918;48.102;11.636;2024-03-08T07:53:02;20.50;;;13.43;;
21513;SDS011;10918;48.102;11.636;2024-03-08T07:55:28;20.75;;;13.23;;
21513;SDS011;10918;48.102;11.636;2024-03-08T07:57:56;19.73;;;12.90;;
21513;SDS011;10918;48.102;11.636;2024-03-08T08:00:22;19.13;;;12.32;;
21513;SDS011;10918;48.102;11.636;2024-03-08T08:02:49;18.55;;;12.90;;
21513;SDS011;10918;48.102;11.636;2024-03-08T08:05:15;20.02;;;12.90;;
21513;SDS011;10918;48.102;11.636;2024-03-08T08:07:46;20.25;;;12.82;;
21513;SDS011;10918;48.102;11.636;2024-03-08T08:10:15;19.17;;;12.82;;
21513;SDS011;10918;48.102;11.636;2024-03-08T08:12:50;19.50;;;13.75;;
21513;SDS011;10918;48.102;11.636;2024-03-08T08:15:16;16.88;;;13.15;;
21513;SDS011;10918;48.102;11.636;2024-03-08T08:17:43;19.77;;;12.68;;
21513;SDS011;10918;48.102;11.636;2024-03-08T08:20:09;17.85;;;12.30;;
21513;SDS011;10918;48.102;11.636;2024-03-08T08:22:36;19.27;;;13.07;;
21513;SDS011;10918;48.102;11.636;2024-03-08T08:25:04;21.95;;;14.23;;
21513;SDS011;10918;48.102;11.636;2024-03-08T08:27:30;18.15;;;13.15;;
21513;SDS011;10918;48.102;11.636;2024-03-08T08:29:56;19.25;;;12.48;;
21513;SDS011;10918;48.102;11.636;2024-03-08T08:32:22;18.40;;;12.80;;
21513;SDS011;10918;48.102;11.636;2024-03-08T08:34:48;16.90;;;12.23;;
21513;SDS011;10918;48.102;11.636;2024-03-08T08:37:14;19.30;;;12.48;;
21513;SDS011;10918;48.102;11.636;2024-03-08T08:39:41;19.08;;;12.57;;
21513;SDS011;10918;48.102;11.636;2024-03-08T08:42:07;20.90;;;12.98;;
21513;SDS011;10918;48.102;11.636;2024-03-08T08:44:34;19.38;;;13.02;;
21513;SDS011;10918;48.102;11.636;2024-03-08T08:47:00;19.42;;;12.00;;
21513;SDS011;10918;48.102;11.636;2024-03-08T08:49:28;17.83;;;11.32;;
21513;SDS011;10918;48.102;11.636;2024-03-08T08:51:55;17.48;;;11.77;;
21513;SDS011;10918;48.102;11.636;2024-03-08T08:54:23;29.17;;;17.63;;
21513;SDS011;10918;48.102;11.636;2024-03-08T08:56:50;20.58;;;12.20;;
21513;SDS011;10918;48.102;11.636;2024-03-08T08:59:16;15.38;;;11.60;;
21513;SDS011;10918;48.102;11.636;2024-03-08T09:01:45;15.80;;;11.48;;
21513;SDS011;10918;48.102;11.636;2024-03-08T09:04:15;15.48;;;11.43;;
21513;SDS011;10918;48.102;11.636;2024-03-08T09:06:41;14.77;;;11.10;;
21513;SDS011;10918;48.102;11.636;2024-03-08T09:09:07;15.77;;;11.40;;
21513;SDS011;10918;48.102;11.636;2024-03-08T09:11:34;16.80;;;12.13;;
21513;SDS011;10918;48.102;11.636;2024-03-08T09:14:00;16.80;;;11.48;;
21513;SDS011;10918;48.102;11.636;2024-03-08T09:16:27;13.38;;;11.18;;
21513;SDS011;10918;48.102;11.636;2024-03-08T09:18:53;17.63;;;12.23;;
21513;SDS011;10918;48.102;11.636;2024-03-08T09:21:19;14.20;;;11.05;;
21513;SDS011;10918;48.102;11.636;2024-03-08T09:23:45;16.63;;;12.20;;
21513;SDS011;10918;48.102;11.636;2024-03-08T09:26:11;14.82;;;11.75;;
21513;SDS011;10918;48.102;11.636;2024-03-08T09:28:37;15.15;;;12.00;;
21513;SDS011;10918;48.102;11.636;2024-03-08T09:31:04;15.23;;;11.90;;
21513;SDS011;10918;48.102;11.636;2024-03-08T09:33:30;15.40;;;12.27;;
21513;SDS011;10918;48.102;11.636;2024-03-08T09:35:56;13.18;;;11.00;;
21513;SDS011;10918;48.102;11.636;2024-03-08T09:38:23;13.60;;;11.20;;
21513;SDS011;10918;48.102;11.636;2024-03-08T09:40:50;16.98;;;12.40;;
21513;SDS011;10918;48.102;11.636;2024-03-08T09:43:16;12.63;;;11.18;;
21513;SDS011;10918;48.102;11.636;2024-03-08T09:45:43;15.57;;;11.43;;
21513;SDS011;10918;48.102;11.636;2024-03-08T09:48:11;14.95;;;12.50;;
21513;SDS011;10918;48.102;11.636;2024-03-08T09:50:38;14.52;;;12.05;;
21513;SDS011;10918;48.102;11.636;2024-03-08T09:53:04;16.58;;;12.45;;
21513;SDS011;10918;48.102;11.636;2024-03-08T09:55:34;16.00;;;13.13;;
21513;SDS011;10918;48.102;11.636;2024-03-08T09:58:01;14.68;;;12.45;;
21513;SDS011;10918;48.102;11.636;2024-03-08T10:00:46;13.50;;;12.10;;
21513;SDS011;10918;48.102;11.636;2024-03-08T10:03:12;13.00;;;11.68;;
21513;SDS011;10918;48.102;11.636;2024-03-08T10:05:40;14.65;;;13.07;;
21513;SDS011;10918;48.102;11.636;2024-03-08T10:08:07;12.70;;;11.40;;
21513;SDS011;10918;48.102;11.636;2024-03-08T10:10:36;13.50;;;12.10;;
21513;SDS011;10918;48.102;11.636;2024-03-08T10:13:06;13.75;;;12.35;;
21513;SDS011;10918;48.102;11.636;2024-03-08T10:15:32;12.88;;;11.55;;
21513;SDS011;10918;48.102;11.636;2024-03-08T10:17:58;13.38;;;11.98;;
21513;SDS011;10918;48.102;11.636;2024-03-08T10:20:24;12.57;;;11.20;;
21513;SDS011;10918;48.102;11.636;2024-03-08T10:22:51;13.00;;;11.50;;
21513;SDS011;10918;48.102;11.636;2024-03-08T10:25:18;13.52;;;12.10;;
21513;SDS011;10918;48.102;11.636;2024-03-08T10:27:44;14.80;;;13.30;;
21513;SDS011;10918;48.102;11.636;2024-03-08T10:30:15;12.50;;;11.30;;
21513;SDS011;10918;48.102;11.636;2024-03-08T10:32:44;13.02;;;11.70;;
21513;SDS011;10918;48.102;11.636;2024-03-08T10:35:11;14.07;;;12.40;;
21513;SDS011;10918;48.102;11.636;2024-03-08T10:37:50;14.77;;;12.77;;
21513;SDS011;10918;48.102;11.636;2024-03-08T10:40:23;15.57;;;12.38;;
21513;SDS011;10918;48.102;11.636;2024-03-08T10:42:53;23.35;;;20.92;;
21513;SDS011;10918;48.102;11.636;2024-03-08T10:45:38;13.45;;;12.05;;
21513;SDS011;10918;48.102;11.636;2024-03-08T10:48:28;11.43;;;10.32;;
21513;SDS011;10918;48.102;11.636;2024-03-08T10:50:59;12.05;;;10.77;;
21513;SDS011;10918;48.102;11.636;2024-03-08T10:53:28;11.18;;;10.18;;
21513;SDS011;10918;48.102;11.636;2024-03-08T10:55:56;11.35;;;10.35;;
21513;SDS011;10918;48.102;11.636;2024-03-08T10:58:22;11.65;;;10.55;;
21513;SDS011;10918;48.102;11.636;2024-03-08T11:00:52;11.70;;;10.60;;
21513;SDS011;10918;48.102;11.636;2024-03-08T11:04:01;11.70;;;10.60;;
21513;SDS011;10918;48.102;11.636;2024-03-08T11:06:16;11.00;;;10.00;;
21513;SDS011;10918;48.102;11.636;2024-03-08T11:08:43;11.43;;;10.35;;
21513;SDS011;10918;48.102;11.636;2024-03-08T11:13:55;12.13;;;10.98;;
21513;SDS011;10918;48.102;11.636;2024-03-08T11:16:36;11.77;;;10.68;;
21513;SDS011;10918;48.102;11.636;2024-03-08T11:19:06;11.30;;;10.27;;
21513;SDS011;10918;48.102;11.636;2024-03-08T11:21:35;11.35;;;10.25;;
21513;SDS011;10918;48.102;11.636;2024-03-08T11:24:07;12.82;;;11.57;;
21513;SDS011;10918;48.102;11.636;2024-03-08T11:26:37;11.63;;;10.57;;
21513;SDS011;10918;48.102;11.636;2024-03-08T11:31:49;12.50;;;11.30;;
21513;SDS011;10918;48.102;11.636;2024-03-08T11:34:15;10.77;;;9.80;;
21513;SDS011;10918;48.102;11.636;2024-03-08T11:36:42;11.35;;;10.32;;
21513;SDS011;10918;48.102;11.636;2024-03-08T11:39:08;12.18;;;11.00;;
21513;SDS011;10918;48.102;11.636;2024-03-08T11:41:39;12.60;;;11.32;;
21513;SDS011;10918;48.102;11.636;2024-03-08T11:44:06;13.07;;;11.88;;
21513;SDS011;10918;48.102;11.636;2024-03-08T11:46:34;12.25;;;11.05;;
21513;SDS011;10918;48.102;11.636;2024-03-08T11:49:00;12.82;;;11.48;;
21513;SDS011;10918;48.102;11.636;2024-03-08T11:51:26;11.23;;;10.23;;
21513;SDS011;10918;48.102;11.636;2024-03-08T11:53:53;12.27;;;11.07;;
21513;SDS011;10918;48.102;11.636;2024-03-08T11:56:19;11.65;;;10.55;;
21513;SDS011;10918;48.102;11.636;2024-03-08T11:58:55;12.18;;;11.07;;
21513;SDS011;10918;48.102;11.636;2024-03-08T12:01:22;12.05;;;10.95;;
21513;SDS011;10918;48.102;11.636;2024-03-08T12:03:55;12.02;;;10.95;;
21513;SDS011;10918;48.102;11.636;2024-03-08T12:06:25;12.07;;;10.95;;
21513;SDS011;10918;48.102;11.636;2024-03-08T12:08:52;11.57;;;10.50;;
21513;SDS011;10918;48.102;11.636;2024-03-08T12:11:19;11.82;;;10.82;;
21513;SDS011;10918;48.102;11.636;2024-03-08T12:13:48;11.88;;;10.77;;
21513;SDS011;10918;48.102;11.636;2024-03-08T12:16:16;11.32;;;10.32;;
21513;SDS011;10918;48.102;11.636;2024-03-08T12:18:50;12.82;;;11.63;;
21513;SDS011;10918;48.102;11.636;2024-03-08T12:21:17;11.88;;;10.77;;
21513;SDS011;10918;48.102;11.636;2024-03-08T12:23:46;11.85;;;10.85;;
21513;SDS011;10918;48.102;11.636;2024-03-08T12:26:16;11.70;;;10.50;;
21513;SDS011;10918;48.102;11.636;2024-03-08T12:28:43;12.05;;;11.05;;
21513;SDS011;10918;48.102;11.636;2024-03-08T12:31:13;12.18;;;11.07;;
21513;SDS011;10918;48.102;11.636;2024-03-08T12:36:17;12.48;;;11.27;;
21513;SDS011;10918;48.102;11.636;2024-03-08T12:38:46;11.68;;;10.63;;
21513;SDS011;10918;48.102;11.636;2024-03-08T12:41:16;12.52;;;11.32;;
21513;SDS011;10918;48.102;11.636;2024-03-08T12:43:42;13.50;;;12.30;;
21513;SDS011;10918;48.102;11.636;2024-03-08T12:46:13;12.30;;;11.20;;
21513;SDS011;10918;48.102;11.636;2024-03-08T12:48:39;12.73;;;11.63;;
21513;SDS011;10918;48.102;11.636;2024-03-08T12:51:06;11.60;;;10.60;;
21513;SDS011;10918;48.102;11.636;2024-03-08T12:53:32;11.05;;;10.05;;
21513;SDS011;10918;48.102;11.636;2024-03-08T12:55:58;12.25;;;11.15;;
21513;SDS011;10918;48.102;11.636;2024-03-08T12:58:25;11.50;;;10.40;;
21513;SDS011;10918;48.102;11.636;2024-03-08T13:00:51;11.50;;;10.50;;
21513;SDS011;10918;48.102;11.636;2024-03-08T13:03:17;12.00;;;10.82;;
21513;SDS011;10918;48.102;11.636;2024-03-08T13:05:43;11.68;;;10.52;;
21513;SDS011;10918;48.102;11.636;2024-03-08T13:08:10;11.38;;;10.38;;
21513;SDS011;10918;48.102;11.636;2024-03-08T13:10:43;10.60;;;9.55;;
21513;SDS011;10918;48.102;11.636;2024-03-08T13:13:09;11.13;;;10.13;;
21513;SDS011;10918;48.102;11.636;2024-03-08T13:15:40;11.07;;;10.18;;
21513;SDS011;10918;48.102;11.636;2024-03-08T13:21:09;10.80;;;9.90;;
21513;SDS011;10918;48.102;11.636;2024-03-08T13:23:37;11.00;;;10.02;;
21513;SDS011;10918;48.102;11.636;2024-03-08T13:26:08;11.20;;;10.30;;
21513;SDS011;10918;48.102;11.636;2024-03-08T13:28:37;10.13;;;9.23;;
21513;SDS011;10918;48.102;11.636;2024-03-08T13:31:04;10.50;;;9.60;;
21513;SDS011;10918;48.102;11.636;2024-03-08T13:33:31;10.35;;;9.35;;
21513;SDS011;10918;48.102;11.636;2024-03-08T13:36:00;10.50;;;9.60;;
21513;SDS011;10918;48.102;11.636;2024-03-08T13:38:26;10.32;;;9.43;;
21513;SDS011;10918;48.102;11.636;2024-03-08T13:40:52;10.75;;;9.80;;
21513;SDS011;10918;48.102;11.636;2024-03-08T13:43:18;11.07;;;10.07;;
21513;SDS011;10918;48.102;11.636;2024-03-08T13:45:44;10.88;;;9.98;;
21513;SDS011;10918;48.102;11.636;2024-03-08T13:48:11;12.27;;;11.13;;
21513;SDS011;10918;48.102;11.636;2024-03-08T13:50:37;11.10;;;10.10;;
21513;SDS011;10918;48.102;11.636;2024-03-08T13:53:04;13.07;;;11.57;;
21513;SDS011;10918;48.102;11.636;2024-03-08T13:55:30;14.00;;;12.70;;
21513;SDS011;10918;48.102;11.636;2024-03-08T13:57:58;11.65;;;10.48;;
21513;SDS011;10918;48.102;11.636;2024-03-08T14:00:25;11.35;;;10.30;;
21513;SDS011;10918;48.102;11.636;2024-03-08T14:02:54;11.20;;;10.13;;
21513;SDS011;10918;48.102;11.636;2024-03-08T14:05:20;12.70;;;11.43;;
21513;SDS011;10918;48.102;11.636;2024-03-08T14:07:46;11.00;;;9.90;;
21513;SDS011;10918;48.102;11.636;2024-03-08T14:10:14;12.10;;;10.63;;
21513;SDS011;10918;48.102;11.636;2024-03-08T14:12:40;13.13;;;11.60;;
21513;SDS011;10918;48.102;11.636;2024-03-08T14:15:09;12.77;;;11.48;;
21513;SDS011;10918;48.102;11.636;2024-03-08T14:17:36;12.70;;;11.35;;
21513;SDS011;10918;48.102;11.636;2024-03-08T14:20:02;13.43;;;12.02;;